Last 30 Days

Kelseyville

Daily Data | America/Los_Angeles
as of 5/18/21 3:56 PM PDT
Date Daily Max Temp (°F) Time of Max Temp Daily Min Temp (°F) Time of Min Temp Daily Rain (In) Monthly Rain (In) Seasonal Rainfall (In) Daily ETo (in) 7 Day ETo (in) Daily Solar Rad (Cal/cm2) Wind Spd (mph) Daily Max Wind (mph) Time of Max Wind Max Wind Dir (°) Dew Pt (°F) Max RH (%) Min RH (%) Hrs <= 32F (hrs) Hrs <= 28F (hrs) Daily Leaf Wet Hrs (hrs) Degree Hrs (hrs) Hrs 70-85F (hrs) Hrs > 95F (hrs) Powdery Mildew Stress (pts) Storm Total (In) Daily Max Rain Intensity (In/Hr) Time of Max Rain Intensity Max 1 Min Rain (In) Max 1 Min Rain Time Max 15 Min Rain (In) Max 15 Min Precip Time Max 60 Min Rain (In) Max 60 Min Rain Time Bat Volt Min Day (V)
5/17/21 82.6 1414 43.8 0535 0.00 0.00 8.19 0.239 1.69 719 4.0 23.2 1522 SW | 234 43.9 93 20 0.0 0.0 0.0 98.3 7.36 0.00 60 - - - - - - - - - 12.5
5/16/21 83.7 1327 46.0 0607 0.00 0.00 8.19 0.235 1.70 702 4.0 17.5 1424 SW | 228 49.6 95 28 0.0 0.0 0.0 126.4 9.65 0.00 40 - - - - - - - - - 12.6
5/15/21 83.1 1427 42.3 0550 0.00 0.00 8.19 0.174 1.70 547 2.4 16.0 1538 WSW | 242 47.7 93 23 0.0 0.0 0.0 79.7 5.94 0.00 50 - - - - - - - - - 12.6
5/14/21 87.6 1333 44.5 0614 0.00 0.00 8.19 0.258 1.76 706 4.1 22.4 1534 WNW | 291 42.0 86 12 0.0 0.0 0.0 148.6 4.22 0.00 60 - - - - - - - - - 12.5
5/13/21 90.9 1434 42.8 0559 0.00 0.00 8.19 0.263 1.72 721 3.2 17.8 1714 WSW | 256 41.9 85 9 0.0 0.0 0.0 205.9 2.99 0.00 70 - - - - - - - - - 12.6
5/12/21 90.6 1441 42.7 0536 0.00 0.00 8.19 0.262 1.69 720 3.1 15.1 1745 SSW | 213 38.3 79 10 0.0 0.0 0.0 203.0 3.25 0.00 80 - - - - - - - - - 12.6
5/11/21 89.6 1605 41.3 0558 0.00 0.00 8.19 0.260 1.69 719 3.0 18.6 1746 SW | 216 35.7 83 12 0.0 0.0 0.0 197.6 3.28 0.00 90 - - - - - - - - - 12.6
5/10/21 87.5 1657 39.4 0538 0.00 0.00 8.19 0.252 1.66 734 2.8 15.1 1242 NE | 54 34.6 94 9 0.0 0.0 0.0 176.3 4.85 0.00 100 - - - - - - - - - 12.5
5/9/21 81.0 1506 41.3 0626 0.00 0.00 8.19 0.230 1.63 690 3.5 20.0 1532 WNW | 291 40.0 82 22 0.0 0.0 0.0 100.9 8.55 0.00 100 - - - - - - - - - 12.5
5/8/21 83.9 1615 36.0 0541 0.00 0.00 8.19 0.238 1.62 708 3.1 16.4 1828 WNW | 302 35.8 94 11 0.0 0.0 0.0 134.5 9.24 0.00 90 - - - - - - - - - 12.5
5/7/21 74.0 1532 40.6 0542 0.00 0.00 8.19 0.213 1.61 708 3.9 18.6 1632 NW | 310 38.7 94 28 0.0 0.0 3.8 37.2 4.16 0.00 100 - - - - - - - - - 12.6
5/6/21 76.3 1430 47.9 0025 0.00 0.00 8.19 0.235 1.61 691 6.0 23.0 1925 W | 261 38.0 87 24 0.0 0.0 0.0 66.7 7.47 0.00 90 - - - - - - - - - 12.6
5/5/21 89.1 1539 42.2 0626 0.00 0.00 8.19 0.260 1.61 701 3.9 18.6 1543 SSW | 213 42.9 94 14 0.0 0.0 0.0 184.0 2.72 0.00 100 - - - - - - - - - 12.5
5/4/21 84.7 1647 43.5 0553 0.00 0.00 8.19 0.231 1.58 693 2.9 16.7 1435 N | 0 43.2 87 23 0.0 0.0 0.0 138.1 9.37 0.00 100 - - - - - - - - - 12.5
5/3/21 82.9 1556 38.6 0602 0.00 0.00 8.19 0.228 1.55 693 3.1 17.5 1652 WNW | 296 41.5 100 17 0.0 0.0 0.0 116.8 8.54 0.00 100 - - - - - - - - - 12.5
5/2/21 76.4 1538 41.7 0449 0.00 0.00 8.19 0.219 1.48 691 3.9 18.4 1729 WSW | 249 41.4 85 27 0.0 0.0 0.0 63.3 6.30 0.00 100 - - - - - - - - - 12.5
5/1/21 76.0 1359 46.8 0623 0.00 0.00 8.19 0.225 1.36 691 5.9 21.9 1657 W | 281 44.6 78 34 0.0 0.0 0.0 62.8 6.97 0.00 80 - - - - - - - - - 12.5
4/30/21 84.5 1430 41.0 0555 0.00 0.13 8.19 0.214 1.25 608 3.4 16.7 1457 WSW | 248 40.1 85 17 0.0 0.0 0.0 118.2 8.12 0.00 60 - - - - - - - - - 12.5
4/29/21 88.3 1549 37.8 0527 0.00 0.13 8.19 0.235 1.24 681 2.9 14.7 1648 WSW | 258 37.5 100 10 0.0 0.0 0.0 157.6 3.48 0.00 70 - - - - - - - - - 12.5
4/28/21 83.1 1644 34.1 0625 0.00 0.13 8.19 0.227 1.22 696 2.6 18.2 1722 NW | 314 35.4 96 14 0.0 0.0 0.7 118.2 8.61 0.00 50 - - - - - - - - - 12.5
4/27/21 73.7 1648 32.1 0331 0.00 0.13 8.19 0.203 1.21 697 2.7 18.2 1732 NW | 325 35.4 99 20 0.0 0.0 7.4 36.4 4.11 0.00 60 - - - - - - - - - 12.5
4/26/21 61.5 1503 31.8 0615 0.00 0.13 8.19 0.154 1.19 622 3.7 21.5 1446 SW | 219 35.3 98 32 0.1 0.0 8.0 0.0 0.00 0.00 70 - - - - - - - - - 12.5
4/25/21 57.6 1550 36.4 0049 0.11 0.13 8.19 0.104 1.27 425 4.8 23.9 1404 WNW | 293 38.4 97 42 0.0 0.0 8.3 0.0 0.00 0.00 80 0.13 0.16 1156 0.01 1021 0.03 1119 0.07 1157 12.5
4/24/21 59.2 1519 45.0 0049 0.02 0.02 8.08 0.110 1.40 361 5.6 19.1 1252 S | 187 38.7 84 46 0.0 0.0 1.0 0.0 0.00 0.00 90 - 0.05 1353 0.01 1343 0.02 1354 0.02 1354 12.5
4/23/21 76.8 1415 37.5 0627 0.00 0.00 8.06 0.210 1.53 594 4.9 21.0 1609 WSW | 251 36.6 90 18 0.0 0.0 0.0 48.8 4.84 0.00 100 - - - - - - - - - 12.5
4/22/21 78.3 1402 37.8 0554 0.00 0.00 8.06 0.217 1.53 661 4.1 19.3 1646 WSW | 253 40.0 92 24 0.0 0.0 0.0 72.0 7.04 0.00 100 - - - - - - - - - 12.5
4/21/21 78.5 1632 36.8 0634 0.00 0.00 8.06 0.212 1.51 657 3.2 16.7 1702 SSW | 200 38.5 97 15 0.0 0.0 0.0 82.8 7.75 0.00 80 - - - - - - - - - 12.5
4/20/21 71.7 1557 37.0 0648 0.00 0.00 8.06 0.187 1.48 654 4.1 24.8 1651 NE | 46 39.4 85 34 0.0 0.0 0.0 16.8 0.60 0.00 90 - - - - - - - - - 12.5
4/19/21 83.5 1421 38.1 0636 0.00 0.00 8.06 0.233 1.50 656 4.2 21.7 1648 NW | 311 35.4 81 11 0.0 0.0 0.0 104.3 7.82 0.00 70 - - - - - - - - - 12.5
4/18/21 85.5 1617 33.4 0617 0.00 0.00 8.06 0.232 1.48 658 3.3 22.1 1730 WNW | 287 31.2 86 10 0.0 0.0 0.0 137.3 9.09 0.00 50 - - - - - - - - - 12.5
Max 90.9 - 47.9 - 0.11 0.13 - 0.263 - 734 6.0 24.8 - - 49.6 100 46 0.1 0.0 8.3 205.9 9.65 0.00 - - 0.16 - 0.01 - 0.03 - 0.07 - 12.6
Avg - - - - - 0.03 - - - - 3.7 - - - 39.4 - - 0.0 0.0 - - 5.54 0.00 - - - - - - - - - - -
Min 57.6 - 31.8 - 0.00 0.00 - 0.104 - 361 2.4 14.7 - - 31.2 78 9 0.0 0.0 0.0 0.0 0.00 0.00 - - 0.05 - 0.01 - 0.02 - 0.02 - 12.5
Total - - - - - - - - - - - - - - - - - 0.1 0.0 - - 166.31 0.00 - - - - - - - - - - -